createdAt,value
2022-08-10T00:00:22.669Z,24.77
2022-08-10T00:05:21.210Z,24.86
2022-08-10T00:10:22.319Z,25.01
2022-08-10T00:15:52.494Z,24.94
2022-08-10T00:20:42.130Z,24.64
2022-08-10T00:25:40.594Z,24.46
2022-08-10T00:30:39.502Z,24.22
2022-08-10T00:35:36.965Z,24.36
2022-08-10T00:40:37.499Z,24.12
2022-08-10T00:45:36.841Z,24.42
2022-08-10T00:50:34.929Z,24.25
2022-08-10T00:55:33.230Z,24.44
2022-08-10T01:00:53.338Z,24.06
2022-08-10T01:06:15.188Z,24.17
2022-08-10T01:12:27.810Z,23.76
2022-08-10T01:17:07.242Z,23.78
2022-08-10T01:22:22.043Z,23.60
2022-08-10T01:27:27.623Z,23.44
2022-08-10T01:32:41.811Z,23.33
2022-08-10T01:37:51.954Z,23.16
2022-08-10T01:42:54.390Z,23.19
2022-08-10T01:48:16.502Z,23.16
2022-08-10T01:53:27.903Z,23.00
2022-08-10T01:58:39.299Z,23.01
2022-08-10T02:04:04.073Z,23.38
2022-08-10T02:09:06.227Z,23.32
2022-08-10T02:14:06.700Z,23.46
2022-08-10T02:19:06.292Z,23.31
2022-08-10T02:24:13.107Z,23.18
2022-08-10T02:29:14.715Z,23.06
2022-08-10T02:34:14.267Z,23.20
2022-08-10T02:39:14.075Z,22.97
2022-08-10T02:45:17.813Z,23.57
2022-08-10T02:50:09.927Z,23.68
2022-08-10T02:55:33.696Z,23.72
2022-08-10T03:00:32.169Z,23.71
2022-08-10T03:05:30.808Z,23.45
2022-08-10T03:10:31.209Z,23.62
2022-08-10T03:15:30.163Z,23.68
2022-08-10T03:20:40.544Z,23.73
2022-08-10T03:25:40.172Z,23.82
2022-08-10T03:30:38.715Z,23.72
2022-08-10T03:35:37.010Z,23.74
2022-08-10T03:40:45.955Z,23.84
2022-08-10T03:45:55.755Z,23.84
2022-08-10T03:50:56.112Z,23.82
2022-08-10T03:56:28.784Z,23.82
2022-08-10T04:01:15.928Z,23.87
2022-08-10T04:06:14.232Z,23.96
2022-08-10T04:11:13.065Z,23.84
2022-08-10T04:16:11.724Z,23.86
2022-08-10T04:21:13.017Z,23.83
2022-08-10T04:26:12.509Z,23.70
2022-08-10T04:31:13.451Z,23.64
2022-08-10T04:36:11.965Z,23.84
2022-08-10T04:41:13.371Z,24.10
2022-08-10T04:46:42.771Z,24.03
2022-08-10T04:51:30.912Z,23.81
2022-08-10T04:56:31.352Z,23.77
2022-08-10T05:02:12.142Z,24.11
2022-08-10T05:06:52.798Z,23.76
2022-08-10T05:11:51.184Z,23.66
2022-08-10T05:16:48.642Z,23.80
2022-08-10T05:21:59.815Z,23.76
2022-08-10T05:27:10.400Z,23.73
2022-08-10T05:32:08.475Z,23.63
2022-08-10T05:38:13.073Z,23.70
2022-08-10T05:42:30.502Z,23.97
2022-08-10T05:47:28.127Z,23.99
2022-08-10T05:52:50.547Z,24.04
2022-08-10T05:57:48.008Z,24.00
2022-08-10T06:02:49.379Z,23.99
2022-08-10T06:07:59.313Z,24.51
2022-08-10T06:13:26.980Z,24.47
2022-08-10T06:18:30.542Z,25.07
2022-08-10T06:23:31.720Z,25.86
2022-08-10T06:28:33.271Z,25.65
2022-08-10T06:33:35.123Z,25.91
2022-08-10T06:38:35.433Z,25.59
2022-08-10T06:43:37.531Z,25.47
2022-08-10T06:48:39.188Z,25.09
2022-08-10T06:53:53.934Z,25.46
2022-08-10T06:59:24.315Z,25.48
2022-08-10T07:04:32.712Z,25.77
2022-08-10T07:09:37.049Z,25.87
2022-08-10T07:14:39.043Z,25.22
2022-08-10T07:19:49.439Z,25.41
2022-08-10T07:24:56.118Z,26.13
2022-08-10T07:29:55.207Z,25.90
2022-08-10T07:35:03.992Z,25.54
2022-08-10T07:40:04.976Z,26.03
2022-08-10T07:45:04.219Z,26.17
2022-08-10T07:50:04.123Z,25.55
2022-08-10T07:55:02.863Z,25.77
2022-08-10T08:00:04.733Z,25.88
2022-08-10T08:05:10.414Z,26.22
2022-08-10T08:10:11.972Z,26.35
2022-08-10T08:16:17.901Z,26.27
2022-08-10T08:20:34.237Z,26.42
2022-08-10T08:25:36.482Z,26.51
2022-08-10T08:30:35.656Z,26.46
2022-08-10T08:35:44.333Z,27.01
2022-08-10T08:40:48.515Z,27.25
2022-08-10T08:46:01.189Z,27.29
2022-08-10T08:52:09.212Z,27.55
2022-08-10T08:57:49.216Z,27.59
2022-08-10T09:02:55.085Z,27.27
2022-08-10T09:08:02.070Z,27.06
2022-08-10T09:13:08.832Z,27.05
2022-08-10T09:18:06.604Z,27.21
2022-08-10T09:23:16.013Z,27.26
2022-08-10T09:28:26.743Z,27.38
2022-08-10T09:36:24.602Z,27.44
2022-08-10T09:39:01.865Z,27.61
2022-08-10T09:44:05.261Z,27.34
2022-08-10T09:49:17.458Z,27.76
2022-08-10T09:54:49.332Z,27.81
2022-08-10T10:00:09.437Z,27.90
2022-08-10T10:05:20.209Z,28.00
2022-08-10T10:10:30.722Z,28.04
2022-08-10T10:15:50.598Z,28.59
2022-08-10T10:20:58.456Z,28.48
2022-08-10T10:26:18.702Z,28.54
2022-08-10T10:31:34.591Z,28.76
2022-08-10T10:36:33.364Z,29.18
2022-08-10T10:42:03.278Z,28.71
2022-08-10T10:47:38.533Z,28.81
2022-08-10T10:52:56.601Z,29.38
2022-08-10T10:58:02.352Z,29.67
2022-08-10T11:03:00.773Z,29.82
2022-08-10T11:08:09.101Z,29.69
2022-08-10T11:14:26.591Z,29.34
2022-08-10T11:18:55.628Z,30.22
2022-08-10T11:24:42.846Z,30.34
2022-08-10T11:30:06.291Z,30.24
2022-08-10T11:35:34.948Z,30.45
2022-08-10T11:40:37.790Z,30.39
2022-08-10T11:45:52.452Z,30.64
2022-08-10T11:51:00.421Z,29.88
2022-08-10T11:55:59.613Z,30.50
2022-08-10T12:01:06.445Z,30.04
2022-08-10T12:06:07.295Z,30.68
2022-08-10T12:11:04.949Z,30.38
2022-08-10T12:16:08.917Z,30.59
2022-08-10T12:21:21.986Z,30.99
2022-08-10T12:26:27.828Z,31.06
2022-08-10T12:31:39.282Z,31.13
2022-08-10T12:36:48.369Z,31.47
2022-08-10T12:42:06.670Z,31.71
2022-08-10T12:47:19.909Z,31.50
2022-08-10T12:52:22.874Z,31.65
2022-08-10T12:57:23.107Z,30.94
2022-08-10T13:02:26.347Z,31.71
2022-08-10T13:08:25.393Z,31.67
2022-08-10T13:12:48.534Z,32.29
2022-08-10T13:17:52.490Z,33.01
2022-08-10T13:22:52.314Z,34.48
2022-08-10T13:28:01.085Z,35.04
2022-08-10T13:33:14.152Z,32.97
2022-08-10T13:38:13.803Z,32.80
2022-08-10T13:43:11.768Z,31.16
2022-08-10T13:48:18.072Z,32.28
2022-08-10T13:53:21.200Z,34.80
2022-08-10T13:58:33.327Z,31.43
2022-08-10T14:03:37.583Z,31.83
2022-08-10T14:08:36.981Z,33.13
2022-08-10T14:13:36.761Z,33.86
2022-08-10T14:18:36.014Z,33.09
2022-08-10T14:23:35.461Z,31.58
2022-08-10T14:28:38.979Z,30.88
2022-08-10T14:33:36.869Z,30.92
2022-08-10T14:38:36.639Z,30.93
2022-08-10T14:43:44.202Z,30.43
2022-08-10T14:48:43.950Z,30.08
2022-08-10T14:53:43.737Z,30.50
2022-08-10T14:59:05.392Z,30.06
2022-08-10T15:04:09.269Z,29.65
2022-08-10T15:09:12.615Z,29.37
2022-08-10T15:14:43.257Z,29.33
2022-08-10T15:20:03.002Z,29.49
2022-08-10T15:25:06.821Z,29.06
2022-08-10T15:30:19.117Z,28.94
2022-08-10T15:35:36.842Z,28.53
2022-08-10T15:40:51.343Z,28.88
2022-08-10T15:46:03.838Z,28.68
2022-08-10T15:51:05.736Z,28.71
2022-08-10T15:56:15.580Z,28.64
2022-08-10T16:02:14.958Z,28.45
2022-08-10T16:07:08.514Z,28.04
2022-08-10T16:12:59.590Z,27.97
2022-08-10T16:18:08.605Z,27.77
2022-08-10T16:23:10.660Z,27.43
2022-08-10T16:28:10.383Z,27.02
2022-08-10T16:33:27.522Z,26.78
2022-08-10T16:38:51.134Z,26.67
2022-08-10T16:43:49.397Z,26.92
2022-08-10T16:48:50.673Z,26.68
2022-08-10T16:53:51.888Z,26.45
2022-08-10T16:58:55.438Z,26.36
2022-08-10T17:04:07.229Z,26.09
2022-08-10T17:09:18.831Z,26.19
2022-08-10T17:14:17.199Z,26.13
2022-08-10T17:19:19.068Z,26.23
2022-08-10T17:24:21.734Z,25.82
2022-08-10T17:29:57.435Z,26.05
2022-08-10T17:34:46.584Z,25.76
2022-08-10T17:39:52.543Z,25.46
2022-08-10T17:44:54.890Z,25.02
2022-08-10T17:49:57.370Z,25.04
2022-08-10T17:55:00.086Z,24.94
2022-08-10T18:00:01.396Z,24.64
2022-08-10T18:05:03.479Z,24.58
2022-08-10T18:10:02.049Z,24.75
2022-08-10T18:15:12.453Z,24.60
2022-08-10T18:20:15.877Z,24.24
2022-08-10T18:25:21.516Z,23.64
2022-08-10T18:30:21.203Z,23.78
2022-08-10T18:35:21.027Z,23.46
2022-08-10T18:40:19.614Z,23.51
2022-08-10T18:45:21.344Z,23.54
2022-08-10T18:50:27.014Z,23.28
2022-08-10T18:55:35.428Z,23.40
2022-08-10T19:00:56.385Z,23.21
2022-08-10T19:06:29.657Z,23.12
2022-08-10T19:11:46.090Z,23.00
2022-08-10T19:16:55.419Z,23.02
2022-08-10T19:22:17.017Z,23.07
2022-08-10T19:27:27.344Z,22.87
2022-08-10T19:33:03.722Z,23.33
2022-08-10T19:38:16.547Z,23.18
2022-08-10T19:43:30.668Z,23.44
2022-08-10T19:48:45.202Z,23.11
2022-08-10T19:54:13.311Z,23.80
2022-08-10T20:00:17.660Z,23.51
2022-08-10T20:05:15.749Z,23.47
2022-08-10T20:10:40.326Z,22.81
2022-08-10T20:16:23.322Z,22.62
2022-08-10T20:21:29.202Z,22.74
2022-08-10T20:26:32.543Z,22.72
2022-08-10T20:31:41.672Z,22.68
2022-08-10T20:36:49.391Z,22.79
2022-08-10T20:42:02.901Z,22.60
2022-08-10T20:47:42.556Z,22.46
2022-08-10T20:52:58.473Z,22.89
2022-08-10T20:58:14.851Z,22.76
2022-08-10T21:03:35.760Z,23.13
2022-08-10T21:09:10.178Z,23.12
2022-08-10T21:14:28.419Z,22.85
2022-08-10T21:19:35.490Z,22.65
2022-08-10T21:24:53.604Z,22.79
2022-08-10T21:30:09.460Z,22.52
2022-08-10T21:35:37.530Z,22.53
2022-08-10T21:41:17.723Z,22.66
2022-08-10T21:46:58.919Z,22.69
2022-08-10T21:52:37.689Z,22.83
2022-08-10T21:58:28.816Z,22.28
2022-08-10T22:03:47.702Z,22.20
2022-08-10T22:09:18.427Z,22.15
2022-08-10T22:14:59.346Z,22.09
2022-08-10T22:20:27.100Z,22.01
2022-08-10T22:26:12.348Z,22.48
2022-08-10T22:31:51.297Z,22.12
2022-08-10T22:37:27.179Z,22.32
2022-08-10T22:42:59.065Z,22.10
2022-08-10T22:48:26.992Z,22.10
2022-08-10T22:53:57.381Z,22.16
2022-08-10T22:58:55.692Z,22.12
2022-08-10T23:03:54.764Z,21.88
2022-08-10T23:09:02.617Z,21.91
2022-08-10T23:14:06.201Z,22.19
2022-08-10T23:19:23.984Z,22.18
2022-08-10T23:24:29.666Z,22.00
2022-08-10T23:29:30.507Z,22.24
2022-08-10T23:34:33.672Z,22.49
2022-08-10T23:39:43.963Z,22.40
2022-08-10T23:44:48.305Z,22.68
2022-08-10T23:49:49.315Z,22.52
2022-08-10T23:54:51.975Z,22.54
